Hendricks, Minnesota
Current Conditions -  °F | °C
As of 1:33 PM on Sunday 21 Dec 2014 (Local Time) from KCNB Reporting Station
Overcast Overcast  
Wind Chill: 29°   Ceiling: 800
Heat Index: 36°   Visibility: 10mi
Dew Point: 33°   Wind: 8mph
Humidity: 90%   Direction: 180°S
Pressure: 29.64"   Gusts: NA
Location:  44.51°N, 96.42°W
Report Text: KCNB 211933Z AUTO 18007KT 10SM OVC008 02/01 A2964 RMK AO2 T00200005
Loading
Personal Weather Stations






























Interactive Weather Map New forecast layout! Learn more

10-Day Weather Forecast

Advertisements
Track Severe Weather on mobile